createdAt,value
2017-08-31T00:01:37.542Z,67.30
2017-08-31T00:04:05.184Z,67.00
2017-08-31T00:06:32.179Z,66.70
2017-08-31T00:08:59.040Z,66.60
2017-08-31T00:11:25.977Z,66.80
2017-08-31T00:13:52.907Z,66.70
2017-08-31T00:16:19.763Z,66.80
2017-08-31T00:18:46.713Z,66.80
2017-08-31T00:21:13.655Z,66.50
2017-08-31T00:23:40.560Z,66.80
2017-08-31T00:26:07.489Z,66.80
2017-08-31T00:28:34.365Z,66.60
2017-08-31T00:31:02.068Z,66.60
2017-08-31T00:33:29.043Z,66.60
2017-08-31T00:35:56.028Z,66.40
2017-08-31T00:38:22.933Z,66.40
2017-08-31T00:40:49.840Z,66.30
2017-08-31T00:43:16.788Z,66.20
2017-08-31T00:45:43.758Z,66.30
2017-08-31T00:48:10.692Z,66.20
2017-08-31T00:50:37.691Z,66.20
2017-08-31T00:53:04.613Z,66.20
2017-08-31T00:55:31.575Z,66.10
2017-08-31T00:57:58.519Z,66.20
2017-08-31T01:00:25.392Z,66.20
2017-08-31T01:02:53.191Z,65.90
2017-08-31T01:05:20.258Z,66.00
2017-08-31T01:07:47.227Z,65.90
2017-08-31T01:10:14.168Z,65.60
2017-08-31T01:12:41.079Z,65.40
2017-08-31T01:15:08.022Z,65.40
2017-08-31T01:17:34.944Z,65.30
2017-08-31T01:20:01.981Z,65.20
2017-08-31T01:22:29.781Z,65.20
2017-08-31T01:24:56.725Z,65.10
2017-08-31T01:27:23.768Z,65.10
2017-08-31T01:29:50.688Z,65.00
2017-08-31T01:32:18.478Z,65.10
2017-08-31T01:34:45.451Z,65.00
2017-08-31T01:37:12.423Z,65.00
2017-08-31T01:39:39.444Z,65.20
2017-08-31T01:42:06.391Z,65.10
2017-08-31T01:44:33.336Z,65.00
2017-08-31T01:47:00.388Z,65.00
2017-08-31T01:49:27.335Z,65.00
2017-08-31T01:51:54.289Z,65.10
2017-08-31T01:54:21.300Z,65.00
2017-08-31T01:56:48.211Z,65.40
2017-08-31T01:59:15.097Z,65.40
2017-08-31T02:01:42.075Z,65.30
2017-08-31T02:04:09.047Z,65.40
2017-08-31T02:06:36.780Z,66.20
2017-08-31T02:09:03.784Z,65.40
2017-08-31T02:11:30.645Z,65.30
2017-08-31T02:13:57.606Z,65.70
2017-08-31T02:16:24.498Z,66.00
2017-08-31T02:18:52.148Z,66.80
2017-08-31T02:21:19.120Z,66.70
2017-08-31T02:23:46.756Z,67.20
2017-08-31T02:26:13.786Z,67.10
2017-08-31T02:28:40.688Z,67.50
2017-08-31T02:31:07.605Z,67.30
2017-08-31T02:33:34.607Z,67.80
2017-08-31T02:36:01.555Z,68.10
2017-08-31T02:38:28.413Z,68.20
2017-08-31T02:40:55.283Z,68.30
2017-08-31T02:43:22.204Z,68.50
2017-08-31T02:45:49.185Z,69.70
2017-08-31T02:48:16.809Z,69.40
2017-08-31T02:50:43.744Z,69.40
2017-08-31T02:53:10.704Z,69.70
2017-08-31T02:55:37.621Z,70.00
2017-08-31T02:58:04.520Z,70.40
2017-08-31T03:00:31.502Z,70.40
2017-08-31T03:02:58.444Z,70.10
2017-08-31T03:05:25.320Z,70.30
2017-08-31T03:07:52.350Z,70.50
2017-08-31T03:10:19.241Z,70.70
2017-08-31T03:12:46.189Z,70.90
2017-08-31T03:15:13.069Z,70.90
2017-08-31T03:17:39.943Z,70.90
2017-08-31T03:20:06.879Z,71.00
2017-08-31T03:22:33.843Z,71.10
2017-08-31T03:25:00.736Z,71.60
2017-08-31T03:27:28.392Z,72.30
2017-08-31T03:29:55.354Z,72.30
2017-08-31T03:32:22.952Z,72.50
2017-08-31T03:34:49.897Z,72.50
2017-08-31T03:37:16.772Z,72.20
2017-08-31T03:39:43.772Z,72.50
2017-08-31T03:42:10.668Z,72.30
2017-08-31T03:44:37.551Z,72.30
2017-08-31T03:47:04.501Z,72.30
2017-08-31T03:49:31.417Z,72.40
2017-08-31T03:51:58.367Z,72.50
2017-08-31T03:54:26.052Z,72.90
2017-08-31T03:56:53.170Z,73.50
2017-08-31T03:59:20.089Z,73.20
2017-08-31T04:01:47.039Z,73.70
2017-08-31T04:04:14.040Z,72.90
2017-08-31T04:06:40.962Z,72.90
2017-08-31T04:09:07.936Z,72.80
2017-08-31T04:11:34.832Z,73.30
2017-08-31T04:14:01.806Z,73.40
2017-08-31T04:16:28.750Z,73.50
2017-08-31T04:18:55.620Z,73.30
2017-08-31T04:21:22.573Z,73.50
2017-08-31T04:23:49.452Z,73.50
2017-08-31T04:26:16.680Z,73.50
2017-08-31T04:28:53.303Z,73.60
2017-08-31T04:31:26.960Z,73.70
2017-08-31T04:34:08.701Z,73.80
2017-08-31T04:36:40.072Z,73.80
2017-08-31T04:39:13.052Z,73.80
2017-08-31T04:41:44.616Z,74.00
2017-08-31T04:44:15.455Z,74.30
2017-08-31T04:46:42.600Z,74.60
2017-08-31T04:49:14.754Z,74.70
2017-08-31T04:51:42.216Z,74.70
2017-08-31T04:54:09.080Z,74.70
2017-08-31T04:56:36.793Z,75.20
2017-08-31T04:59:03.736Z,75.20
2017-08-31T05:01:30.797Z,75.70
2017-08-31T05:03:57.800Z,76.20
2017-08-31T05:06:25.568Z,76.50
2017-08-31T05:08:52.568Z,76.50
2017-08-31T05:11:19.486Z,76.80
2017-08-31T05:13:46.487Z,76.80
2017-08-31T05:16:13.403Z,77.00
2017-08-31T05:18:40.341Z,77.10
2017-08-31T05:21:07.357Z,77.20
2017-08-31T05:23:34.293Z,77.00
2017-08-31T05:26:01.311Z,77.10
2017-08-31T05:28:28.300Z,77.50
2017-08-31T05:30:55.237Z,77.10
2017-08-31T05:33:22.262Z,77.40
2017-08-31T05:35:50.229Z,77.20
2017-08-31T05:38:17.967Z,77.50
2017-08-31T05:40:45.005Z,77.30
2017-08-31T05:43:11.986Z,77.30
2017-08-31T05:45:38.908Z,77.90
2017-08-31T05:48:06.024Z,78.30
2017-08-31T05:50:33.032Z,78.70
2017-08-31T05:53:00.047Z,79.20
2017-08-31T05:55:27.063Z,79.40
2017-08-31T05:57:54.008Z,80.00
2017-08-31T06:00:21.033Z,80.10
2017-08-31T06:02:48.713Z,80.00
2017-08-31T06:05:15.726Z,79.90
2017-08-31T06:07:42.825Z,80.10
2017-08-31T06:10:09.852Z,80.10
2017-08-31T06:12:37.952Z,80.00
2017-08-31T06:15:04.889Z,80.00
2017-08-31T06:17:31.832Z,80.20
2017-08-31T06:19:58.708Z,80.40
2017-08-31T06:22:25.736Z,80.10
2017-08-31T06:24:52.600Z,80.20
2017-08-31T06:27:19.603Z,80.70
2017-08-31T06:29:46.583Z,81.20
2017-08-31T06:32:13.440Z,81.30
2017-08-31T06:34:40.367Z,81.40
2017-08-31T06:37:07.317Z,81.50
2017-08-31T06:39:34.194Z,81.60
2017-08-31T06:42:01.113Z,82.20
2017-08-31T06:44:28.054Z,82.50
2017-08-31T06:46:54.963Z,82.80
2017-08-31T06:49:22.596Z,82.20
2017-08-31T06:51:49.537Z,82.10
2017-08-31T06:54:16.429Z,81.80
2017-08-31T06:56:43.400Z,81.80
2017-08-31T06:59:10.288Z,81.20
2017-08-31T07:01:37.193Z,81.60
2017-08-31T07:04:04.118Z,81.90
2017-08-31T07:06:31.095Z,82.10
2017-08-31T07:08:58.034Z,82.10
2017-08-31T07:11:24.979Z,82.10
2017-08-31T07:13:51.854Z,81.00
2017-08-31T07:16:18.807Z,81.40
2017-08-31T07:18:45.788Z,81.10
2017-08-31T07:21:12.724Z,80.90
2017-08-31T07:23:40.422Z,81.30
2017-08-31T07:26:07.478Z,81.30
2017-08-31T07:28:34.393Z,80.90
2017-08-31T07:31:01.260Z,80.20
2017-08-31T07:33:28.245Z,80.00
2017-08-31T07:35:55.156Z,80.10
2017-08-31T07:38:22.012Z,79.90
2017-08-31T07:40:48.988Z,79.70
2017-08-31T07:43:15.949Z,79.20
2017-08-31T07:45:43.536Z,77.70
2017-08-31T07:48:10.458Z,77.60
2017-08-31T07:50:38.088Z,78.40
2017-08-31T07:53:05.052Z,78.30
2017-08-31T07:55:31.997Z,78.50
2017-08-31T07:57:58.904Z,78.00
2017-08-31T08:00:25.873Z,77.90
2017-08-31T08:02:52.747Z,75.20
2017-08-31T08:05:19.629Z,73.50
2017-08-31T08:07:46.611Z,73.30
2017-08-31T08:10:13.477Z,71.80
2017-08-31T08:12:40.437Z,72.40
2017-08-31T08:15:08.178Z,72.20
2017-08-31T08:17:35.074Z,72.10
2017-08-31T08:20:02.098Z,73.10
2017-08-31T08:22:29.776Z,73.10
2017-08-31T08:24:56.726Z,73.10
2017-08-31T08:27:23.682Z,72.10
2017-08-31T08:29:50.629Z,71.70
2017-08-31T08:32:17.528Z,70.60
2017-08-31T08:34:44.517Z,68.80
2017-08-31T08:37:11.444Z,68.70
2017-08-31T08:39:38.396Z,68.70
2017-08-31T08:42:05.269Z,67.20
2017-08-31T08:44:32.120Z,69.50
2017-08-31T08:46:59.098Z,68.80
2017-08-31T08:49:26.048Z,69.20
2017-08-31T08:51:57.244Z,68.80
2017-08-31T08:54:25.116Z,66.80
2017-08-31T08:56:51.992Z,66.80
2017-08-31T08:59:18.974Z,67.80
2017-08-31T09:01:46.022Z,67.00
2017-08-31T09:04:13.022Z,68.30
2017-08-31T09:06:40.001Z,67.10
2017-08-31T09:09:08.261Z,65.40
2017-08-31T09:11:35.424Z,65.30
2017-08-31T09:14:02.321Z,66.00
2017-08-31T09:16:29.194Z,64.50
2017-08-31T09:18:56.211Z,65.30
2017-08-31T09:21:23.105Z,64.90
2017-08-31T09:23:50.013Z,64.60
2017-08-31T09:26:16.996Z,65.10
2017-08-31T09:28:43.900Z,63.90
2017-08-31T09:31:10.889Z,63.70
2017-08-31T09:33:37.804Z,62.90
2017-08-31T09:36:04.691Z,62.20
2017-08-31T09:38:32.386Z,62.50
2017-08-31T09:40:59.591Z,62.50
2017-08-31T09:43:26.574Z,61.60
2017-08-31T09:45:53.521Z,61.10
2017-08-31T09:48:20.395Z,61.50
2017-08-31T09:50:47.304Z,61.00
2017-08-31T09:53:17.541Z,61.20
2017-08-31T09:55:49.942Z,61.80
2017-08-31T09:58:21.621Z,61.70
2017-08-31T10:00:52.177Z,61.00
2017-08-31T10:03:19.954Z,57.40
2017-08-31T10:05:50.410Z,56.80
2017-08-31T10:08:17.484Z,56.80
2017-08-31T10:10:44.436Z,54.90
2017-08-31T10:13:11.325Z,54.10
2017-08-31T10:15:38.330Z,53.00
2017-08-31T10:18:09.381Z,52.70
2017-08-31T10:20:36.331Z,52.50
2017-08-31T10:23:04.073Z,51.70
2017-08-31T10:25:31.053Z,52.30
2017-08-31T10:27:58.266Z,52.70
2017-08-31T10:30:25.229Z,52.60
2017-08-31T10:32:52.206Z,54.30
2017-08-31T10:35:19.999Z,56.60
2017-08-31T10:37:46.973Z,56.40
2017-08-31T10:40:13.953Z,57.80
2017-08-31T10:42:40.944Z,58.70
2017-08-31T10:45:07.892Z,58.50
2017-08-31T10:47:35.007Z,59.60
2017-08-31T10:50:01.967Z,59.00
2017-08-31T10:52:29.788Z,58.10
2017-08-31T10:54:56.808Z,58.10
2017-08-31T10:57:23.768Z,56.70
2017-08-31T10:59:50.789Z,55.70
2017-08-31T11:02:17.735Z,55.40
2017-08-31T11:04:44.792Z,54.80
2017-08-31T11:07:11.821Z,55.60
2017-08-31T11:09:38.790Z,55.00
2017-08-31T11:12:05.834Z,53.20
2017-08-31T11:14:32.773Z,54.20
2017-08-31T11:16:59.817Z,52.30
2017-08-31T11:19:26.765Z,52.30
2017-08-31T11:21:53.773Z,52.90
2017-08-31T11:24:20.922Z,53.40
2017-08-31T11:26:47.865Z,53.10
2017-08-31T11:29:14.986Z,53.50
2017-08-31T11:31:41.951Z,53.70
2017-08-31T11:34:08.997Z,54.00
2017-08-31T11:36:36.601Z,54.10
2017-08-31T11:39:12.580Z,54.10
2017-08-31T11:41:39.664Z,55.10
2017-08-31T11:44:08.638Z,53.70
2017-08-31T11:46:35.699Z,54.30
2017-08-31T11:49:02.650Z,53.00
2017-08-31T11:51:29.591Z,52.70
2017-08-31T11:54:01.281Z,51.60
2017-08-31T11:56:30.162Z,50.40
2017-08-31T11:58:57.170Z,49.10
2017-08-31T12:01:25.638Z,49.10
2017-08-31T12:03:52.599Z,47.50
2017-08-31T12:06:19.661Z,48.50
2017-08-31T12:08:46.649Z,46.30
2017-08-31T12:11:14.462Z,45.30
2017-08-31T12:13:41.475Z,45.00
2017-08-31T12:16:09.096Z,46.00
2017-08-31T12:18:36.063Z,46.10
2017-08-31T12:21:03.054Z,47.20
2017-08-31T12:23:30.022Z,46.40
2017-08-31T12:25:57.038Z,47.10
2017-08-31T12:28:24.660Z,47.10
2017-08-31T12:30:51.620Z,47.10
2017-08-31T12:33:18.528Z,46.50
2017-08-31T12:35:45.502Z,46.60
2017-08-31T12:38:12.523Z,46.20
2017-08-31T12:40:39.388Z,45.90
2017-08-31T12:43:06.334Z,45.60
2017-08-31T12:45:33.355Z,46.40
2017-08-31T12:48:00.460Z,46.20
2017-08-31T12:50:27.368Z,45.20
2017-08-31T12:52:54.303Z,46.60
2017-08-31T12:55:21.248Z,46.60
2017-08-31T12:57:48.174Z,47.30
2017-08-31T13:00:15.114Z,47.60
2017-08-31T13:02:42.021Z,48.80
2017-08-31T13:05:08.971Z,50.60
2017-08-31T13:07:36.021Z,51.10
2017-08-31T13:10:03.770Z,50.90
2017-08-31T13:12:30.688Z,50.80
2017-08-31T13:14:57.573Z,51.30
2017-08-31T13:17:24.536Z,52.70
2017-08-31T13:19:52.168Z,52.10
2017-08-31T13:22:19.052Z,52.10
2017-08-31T13:24:46.812Z,52.90
2017-08-31T13:27:14.516Z,52.50
2017-08-31T13:29:41.432Z,52.50
2017-08-31T13:32:08.358Z,52.70
2017-08-31T13:34:36.032Z,51.80
2017-08-31T13:37:03.719Z,50.90
2017-08-31T13:39:30.860Z,50.90
2017-08-31T13:42:06.487Z,51.60
2017-08-31T13:44:34.305Z,49.40
2017-08-31T13:47:01.187Z,49.40
2017-08-31T13:49:28.120Z,49.60
2017-08-31T13:51:55.089Z,49.10
2017-08-31T13:54:23.610Z,48.70
2017-08-31T13:56:50.487Z,48.70
2017-08-31T13:59:17.430Z,49.50
2017-08-31T14:01:56.683Z,50.00
2017-08-31T14:04:26.502Z,51.40
2017-08-31T14:06:53.656Z,51.40
2017-08-31T14:09:20.575Z,50.90
2017-08-31T14:11:48.310Z,51.20
2017-08-31T14:14:16.983Z,51.60
2017-08-31T14:16:43.976Z,52.40
2017-08-31T14:19:12.743Z,52.90
2017-08-31T14:21:40.537Z,52.90
2017-08-31T14:24:09.335Z,52.50
2017-08-31T14:26:37.342Z,51.60
2017-08-31T14:29:07.494Z,51.60
2017-08-31T14:31:34.645Z,51.60
2017-08-31T14:34:06.283Z,51.20
2017-08-31T14:36:35.350Z,51.60
2017-08-31T14:39:05.234Z,51.70
2017-08-31T14:41:32.228Z,51.70
2017-08-31T14:44:04.077Z,50.90
2017-08-31T14:46:31.035Z,51.00
2017-08-31T14:48:58.368Z,50.20
2017-08-31T14:51:26.245Z,51.20
2017-08-31T14:53:53.999Z,50.20
2017-08-31T14:56:20.873Z,50.20
2017-08-31T14:59:02.058Z,51.40
2017-08-31T15:01:29.035Z,51.20
2017-08-31T15:03:56.920Z,50.60
2017-08-31T15:06:23.876Z,50.20
2017-08-31T15:08:50.877Z,50.90
2017-08-31T15:11:17.780Z,51.60
2017-08-31T15:13:44.744Z,52.00
2017-08-31T15:16:12.363Z,51.20
2017-08-31T15:18:40.785Z,51.20
2017-08-31T15:21:08.072Z,52.10
2017-08-31T15:23:34.981Z,52.90
2017-08-31T15:26:01.958Z,53.30
2017-08-31T15:28:28.855Z,53.20
2017-08-31T15:30:55.745Z,53.70
2017-08-31T15:33:22.895Z,53.90
2017-08-31T15:35:49.801Z,53.90
2017-08-31T15:38:16.779Z,53.70
2017-08-31T15:40:43.720Z,53.40
2017-08-31T15:43:26.562Z,53.60
2017-08-31T15:45:54.160Z,52.90
2017-08-31T15:48:25.842Z,53.00
2017-08-31T15:50:53.697Z,52.90
2017-08-31T15:53:20.691Z,52.80
2017-08-31T15:55:47.576Z,53.70
2017-08-31T15:58:15.307Z,53.00
2017-08-31T16:00:42.320Z,52.50
2017-08-31T16:03:10.320Z,52.80
2017-08-31T16:05:37.575Z,52.80
2017-08-31T16:11:06.337Z,52.00
2017-08-31T16:13:36.898Z,52.70
2017-08-31T16:16:04.845Z,52.60
2017-08-31T16:18:31.782Z,52.50
2017-08-31T16:20:58.705Z,52.20
2017-08-31T16:23:25.645Z,52.20
2017-08-31T16:25:52.550Z,52.50
2017-08-31T16:28:20.236Z,52.00
2017-08-31T16:30:47.112Z,52.50
2017-08-31T16:33:14.054Z,52.20
2017-08-31T16:35:40.941Z,51.70
2017-08-31T16:38:07.844Z,52.00
2017-08-31T16:40:34.828Z,52.00
2017-08-31T16:43:01.766Z,51.90
2017-08-31T16:45:28.733Z,52.20
2017-08-31T16:47:56.508Z,52.80
2017-08-31T16:50:24.130Z,52.80
2017-08-31T16:52:51.085Z,52.80
2017-08-31T16:55:18.055Z,53.40
2017-08-31T16:57:45.713Z,54.70
2017-08-31T17:00:13.432Z,55.60
2017-08-31T17:02:40.316Z,55.00
2017-08-31T17:05:07.199Z,54.90
2017-08-31T17:07:34.182Z,54.70
2017-08-31T17:10:01.047Z,54.80
2017-08-31T17:12:28.373Z,55.30
2017-08-31T17:14:55.364Z,55.40
2017-08-31T17:17:23.038Z,55.30
2017-08-31T17:19:50.811Z,55.80
2017-08-31T17:22:17.780Z,55.70
2017-08-31T17:24:44.760Z,55.50
2017-08-31T17:27:11.701Z,55.20
2017-08-31T17:29:38.784Z,55.20
2017-08-31T17:32:05.689Z,54.70
2017-08-31T17:34:32.669Z,55.50
2017-08-31T17:36:59.621Z,56.50
2017-08-31T17:39:26.499Z,57.00
2017-08-31T17:41:53.432Z,57.20
2017-08-31T17:44:20.404Z,56.90
2017-08-31T17:46:47.289Z,56.90
2017-08-31T17:49:14.203Z,57.60
2017-08-31T17:51:41.138Z,57.70
2017-08-31T17:54:07.999Z,57.80
2017-08-31T17:56:34.969Z,58.10
2017-08-31T17:59:01.885Z,58.40
2017-08-31T18:01:28.897Z,58.40
2017-08-31T18:03:55.772Z,58.80
2017-08-31T18:06:22.680Z,58.60
2017-08-31T18:08:50.428Z,59.20
2017-08-31T18:11:17.391Z,59.20
2017-08-31T18:13:45.113Z,59.70
2017-08-31T18:16:12.013Z,59.70
2017-08-31T18:18:38.892Z,59.30
2017-08-31T18:21:05.837Z,59.50
2017-08-31T18:23:33.842Z,59.10
2017-08-31T18:26:00.724Z,60.30
2017-08-31T18:28:27.699Z,60.40
2017-08-31T18:30:54.569Z,60.30
2017-08-31T18:33:21.503Z,60.50
2017-08-31T18:35:48.487Z,60.50
2017-08-31T18:38:16.156Z,60.70
2017-08-31T18:40:43.785Z,61.10
2017-08-31T18:43:10.743Z,61.10
2017-08-31T18:45:37.614Z,60.70
2017-08-31T18:48:04.506Z,61.00
2017-08-31T18:50:31.496Z,61.40
2017-08-31T18:52:59.144Z,62.30
2017-08-31T18:55:26.026Z,62.20
2017-08-31T18:57:57.063Z,61.70
2017-08-31T19:00:23.983Z,61.80
2017-08-31T19:02:50.942Z,61.90
2017-08-31T19:05:18.585Z,61.80
2017-08-31T19:07:45.461Z,61.70
2017-08-31T19:10:12.396Z,61.60
2017-08-31T19:12:40.037Z,61.40
2017-08-31T19:15:07.077Z,61.40
2017-08-31T19:17:34.038Z,61.30
2017-08-31T19:20:01.736Z,62.00
2017-08-31T19:22:28.758Z,61.40
2017-08-31T19:24:55.664Z,61.90
2017-08-31T19:27:22.676Z,61.40
2017-08-31T19:29:49.684Z,62.00
2017-08-31T19:32:16.639Z,61.90
2017-08-31T19:34:44.237Z,62.00
2017-08-31T19:37:11.263Z,61.90
2017-08-31T19:39:38.955Z,62.70
2017-08-31T19:42:05.917Z,62.70
2017-08-31T19:44:32.872Z,63.20
2017-08-31T19:46:59.817Z,63.60
2017-08-31T19:49:26.816Z,64.10
2017-08-31T19:51:54.468Z,64.10
2017-08-31T19:54:21.427Z,64.10
2017-08-31T19:56:49.158Z,64.30
2017-08-31T19:59:16.037Z,64.30
2017-08-31T20:01:43.230Z,64.60
2017-08-31T20:04:10.351Z,64.60
2017-08-31T20:06:37.268Z,64.20
2017-08-31T20:09:04.949Z,64.60
2017-08-31T20:11:32.652Z,64.30
2017-08-31T20:13:59.532Z,64.30
2017-08-31T20:16:26.482Z,64.50
2017-08-31T20:18:53.371Z,63.80
2017-08-31T20:21:20.340Z,64.10
2017-08-31T20:23:47.198Z,64.70
2017-08-31T20:26:14.079Z,65.10
2017-08-31T20:28:41.052Z,64.10
2017-08-31T20:31:08.151Z,64.90
2017-08-31T20:33:35.047Z,65.50
2017-08-31T20:36:02.046Z,65.50
2017-08-31T20:38:28.952Z,65.10
2017-08-31T20:40:55.854Z,65.80
2017-08-31T20:43:22.851Z,65.40
2017-08-31T20:45:49.734Z,65.30
2017-08-31T20:48:16.688Z,65.80
2017-08-31T20:50:47.026Z,66.20
2017-08-31T20:53:14.644Z,66.50
2017-08-31T20:55:41.612Z,66.50
2017-08-31T20:58:08.503Z,66.50
2017-08-31T21:00:36.965Z,65.80
2017-08-31T21:03:03.921Z,66.70
2017-08-31T21:05:30.891Z,66.60
2017-08-31T21:07:57.869Z,66.60
2017-08-31T21:10:24.766Z,66.60
2017-08-31T21:12:51.719Z,67.30
2017-08-31T21:15:18.734Z,67.40
2017-08-31T21:17:46.397Z,67.70
2017-08-31T21:20:14.098Z,67.40
2017-08-31T21:22:41.046Z,67.40
2017-08-31T21:25:08.011Z,67.80
2017-08-31T21:27:35.069Z,67.90
2017-08-31T21:30:02.034Z,68.50
2017-08-31T21:32:28.963Z,68.20
2017-08-31T21:34:55.929Z,68.20
2017-08-31T21:37:22.931Z,67.90
2017-08-31T21:39:49.816Z,68.10
2017-08-31T21:42:16.693Z,68.30
2017-08-31T21:44:43.756Z,68.00
2017-08-31T21:47:10.648Z,67.90
2017-08-31T21:49:37.634Z,67.70
2017-08-31T21:52:04.572Z,67.80
2017-08-31T21:54:31.605Z,67.80
2017-08-31T21:56:59.313Z,68.40
2017-08-31T21:59:27.204Z,68.30
2017-08-31T22:01:54.088Z,68.30
2017-08-31T22:04:21.872Z,69.30
2017-08-31T22:06:48.754Z,69.60
2017-08-31T22:09:15.729Z,69.10
2017-08-31T22:11:42.692Z,68.80
2017-08-31T22:14:10.389Z,69.30
2017-08-31T22:16:39.905Z,69.30
2017-08-31T22:19:06.904Z,69.70
2017-08-31T22:21:33.890Z,69.80
2017-08-31T22:24:00.785Z,69.50
2017-08-31T22:26:27.683Z,69.70
2017-08-31T22:28:54.661Z,69.50
2017-08-31T22:31:21.535Z,69.10
2017-08-31T22:33:48.424Z,69.20
2017-08-31T22:36:15.376Z,69.60
2017-08-31T22:38:42.272Z,69.40
2017-08-31T22:41:09.968Z,70.10
2017-08-31T22:43:36.943Z,69.90
2017-08-31T22:46:03.894Z,69.80
2017-08-31T22:48:30.869Z,70.20
2017-08-31T22:50:57.850Z,70.40
2017-08-31T22:53:24.741Z,70.20
2017-08-31T22:55:51.698Z,70.80
2017-08-31T22:58:18.692Z,70.90
2017-08-31T23:00:45.649Z,70.70
2017-08-31T23:03:12.624Z,70.40
2017-08-31T23:05:39.512Z,70.30
2017-08-31T23:08:06.400Z,70.80
2017-08-31T23:10:33.383Z,70.60
2017-08-31T23:13:00.341Z,70.90
2017-08-31T23:15:28.723Z,71.00
2017-08-31T23:17:55.646Z,70.90
2017-08-31T23:20:22.609Z,70.50
2017-08-31T23:22:49.552Z,70.60
2017-08-31T23:25:17.172Z,70.50
2017-08-31T23:27:44.055Z,70.50
2017-08-31T23:30:11.086Z,70.80
2017-08-31T23:32:37.943Z,70.60
2017-08-31T23:35:04.874Z,70.70
2017-08-31T23:37:31.740Z,70.90
2017-08-31T23:39:58.698Z,71.30
2017-08-31T23:42:26.388Z,71.70
2017-08-31T23:44:53.268Z,71.60
2017-08-31T23:47:20.162Z,71.90
2017-08-31T23:49:47.119Z,71.80
2017-08-31T23:52:14.109Z,71.60
2017-08-31T23:54:41.084Z,71.60
2017-08-31T23:57:08.036Z,71.70
2017-08-31T23:59:35.727Z,72.10
